Latest Weather Observations for Maria Island

IDT60901

Issued at 2:15 pm EDT Saturday 1 November 2014 (issued every 10 minutes, with the page automatically refreshed every 10 minutes)

About weather observations | Map of Hobart area stations | Latest observations for Hobart area | Other Formats
Station Details ID: 092124 Name: MARIA ISLAND (POINT LESUEUR) Lat: -42.66 Lon: 148.02 Height: 28.0 m
Data from the previous 72 hours. | See also: Recent months at Maria Island
Date/Time
EDT
Tmp

°C
App
Tmp
°C
Dew
Point
°C
Rel
Hum
%
Delta-T

°C
Wind Press
QNH
hPa
Press
MSL
hPa
Rain
since
9 am
mm
Dir
 
Spd
km/h
Gust
km/h
Spd
kts
Gust
kts
01/02:14pm 14.5 4.3 5.3 54 4.4 WSW 48 57 26 31 991.7 991.7 0.0
01/02:00pm 17.2 8.3 5.2 45 5.8 WNW 41 56 22 30 991.4 991.4 0.0
01/01:30pm 17.3 7.2 3.9 41 6.3 WNW 46 59 25 32 991.4 991.4 0.0
01/01:09pm 16.8 8.1 4.2 43 6.0 W 39 57 21 31 991.1 991.1 0.0
01/01:00pm 17.6 9.8 4.9 43 6.1 W 35 50 19 27 991.2 991.2 0.0
01/12:30pm 17.6 9.6 3.9 40 6.4 WNW 35 48 19 26 991.3 991.3 0.0
01/12:18pm 17.9 10.9 4.1 40 6.5 W 30 52 16 28 991.3 991.3 0.0
01/12:00pm 16.7 12.8 5.3 47 5.5 WNW 15 28 8 15 991.7 991.7 0.0
01/11:30am 16.5 9.8 5.8 49 5.2 WNW 30 41 16 22 991.5 991.5 0.0
01/11:00am 15.1 11.6 5.6 53 4.6 W 13 22 7 12 991.6 991.6 0.0
01/10:30am 14.6 10.5 6.2 57 4.0 WSW 17 24 9 13 991.7 991.7 0.0
01/10:00am 14.7 9.6 7.5 62 3.6 WSW 24 33 13 18 991.4 991.4 0.0
01/09:30am 14.2 9.3 8.4 68 2.9 SW 24 39 13 21 990.4 990.4 0.0
01/09:00am 15.2 10.4 8.7 65 3.3 W 24 35 13 19 990.3 990.3 0.2
01/08:30am 15.0 11.2 8.9 67 3.1 WNW 19 28 10 15 990.2 990.2 0.2
01/08:00am 14.5 10.8 10.1 75 2.3 NNW 20 32 11 17 990.3 990.3 0.2
01/07:30am 14.2 11.2 10.6 79 1.9 NNW 17 24 9 13 988.9 988.9 0.2
01/07:00am 14.0 9.3 10.6 80 1.8 N 26 32 14 17 988.8 988.8 0.2
01/06:30am 14.0 9.5 10.2 78 2.0 NNW 24 43 13 23 988.8 988.8 0.2
01/06:14am 14.3 9.1 10.1 76 2.2 NNW 28 46 15 25 989.0 989.0 0.0
01/06:00am 14.1 9.7 10.3 78 2.0 N 24 32 13 17 989.5 989.5 0.0
01/05:30am 14.8 11.3 10.2 74 2.4 N 19 24 10 13 989.2 989.2 0.0
01/05:00am 14.9 11.2 10.1 73 2.5 WNW 20 37 11 20 989.6 989.6 0.0
01/04:30am 14.6 10.9 10.0 74 2.4 WNW 20 28 11 15 989.5 989.5 0.0
01/04:00am 15.5 11.4 10.1 70 2.9 W 22 26 12 14 989.9 989.9 0.0
01/03:30am 16.1 10.8 9.8 66 3.3 WNW 28 33 15 18 990.1 990.1 0.0
01/03:00am 15.4 11.4 10.4 72 2.7 NW 22 26 12 14 990.0 990.0 0.0
01/02:30am 16.6 8.3 9.5 63 3.7 NNW 43 48 23 26 989.6 989.6 0.0
01/02:00am 15.8 8.1 10.1 69 3.0 NNW 41 46 22 25 990.1 990.1 0.0
01/01:30am 15.6 7.4 10.4 71 2.7 NNW 44 50 24 27 990.7 990.7 0.0
01/01:00am 15.6 7.6 10.4 71 2.8 NNW 43 52 23 28 991.7 991.7 0.0
01/12:59am 15.5 7.5 10.5 72 2.6 NNW 43 52 23 28 991.8 991.8 0.0
01/12:30am 15.0 10.0 10.8 76 2.2 NNW 28 32 15 17 992.8 992.8 0.0
01/12:00am 15.1 10.1 10.9 76 2.3 NNW 28 32 15 17 993.1 993.1 0.0
 
Date/Time
EDT
Tmp

°C
App
Tmp
°C
Dew
Point
°C
Rel
Hum
%
Delta-T

°C
Wind Press
QNH
hPa
Press
MSL
hPa
Rain
since
9 am
mm
Dir
 
Spd
km/h
Gust
km/h
Spd
kts
Gust
kts
31/11:30pm 15.5 8.7 10.7 73 2.5 N 37 46 20 25 992.9 992.9 0.0
31/11:00pm 15.6 8.4 10.6 72 2.7 N 39 46 21 25 993.9 993.9 0.0
31/10:30pm 15.3 11.9 11.1 76 2.2 N 20 32 11 17 995.2 995.2 0.0
31/10:00pm 15.2 11.8 10.6 74 2.4 N 19 22 10 12 995.7 995.7 0.0
31/09:30pm 15.0 12.7 10.6 75 2.3 N 13 17 7 9 996.2 996.2 0.0
31/09:00pm 15.2 10.9 10.6 74 2.4 N 24 30 13 16 996.2 996.2 0.0
31/08:30pm 15.5 10.4 10.5 72 2.6 N 28 32 15 17 996.1 996.1 0.0
31/08:00pm 15.4 10.4 11.0 75 2.4 N 28 30 15 16 996.4 996.4 0.0
31/07:30pm 16.3 7.8 10.8 70 3.0 N 46 59 25 32 996.0 996.0 0.0
31/07:00pm 16.3 9.7 11.5 73 2.6 N 37 41 20 22 996.6 996.6 0.0
31/06:30pm 17.1 10.5 11.2 68 3.2 N 37 46 20 25 996.7 996.7 0.0
31/06:00pm 16.6 11.9 12.0 74 2.5 N 28 33 15 18 997.3 997.3 0.0
31/05:30pm 17.2 12.5 12.1 72 2.8 N 28 33 15 18 997.6 997.6 0.0
31/05:00pm 17.8 12.3 12.0 69 3.2 N 32 37 17 20 997.9 997.9 0.0
31/04:30pm 16.7 11.3 12.3 75 2.4 N 32 35 17 19 998.3 998.3 0.0
31/04:00pm 17.8 12.7 11.8 68 3.3 N 30 33 16 18 998.9 998.9 0.0
31/03:30pm 17.1 12.3 11.6 70 3.0 N 28 32 15 17 999.0 999.0 0.0
31/03:00pm 18.1 12.0 11.7 66 3.5 N 35 41 19 22 999.7 999.6 0.0
31/02:30pm 16.9 11.8 11.8 72 2.8 N 30 33 16 18 1000.1 1000.0 0.0
31/02:00pm 16.5 12.8 11.6 73 2.7 N 22 26 12 14 1000.4 1000.3 0.0
31/01:30pm 16.4 10.9 10.7 69 3.0 NNW 30 35 16 19 1000.5 1000.4 0.0
31/01:00pm 16.0 10.2 10.7 71 2.8 NNW 32 35 17 19 1001.3 1001.3 0.0
31/12:30pm 15.8 10.0 10.8 72 2.7 N 32 35 17 19 1001.4 1001.4 0.0
31/12:00pm 14.9 9.3 10.3 74 2.4 N 30 35 16 19 1001.9 1001.9 0.0
31/11:30am 14.3 9.0 9.7 74 2.4 NNW 28 33 15 18 1002.7 1002.7 0.0
31/11:00am 14.1 9.1 9.5 74 2.4 N 26 33 14 18 1002.9 1002.9 0.0
31/10:30am 13.7 10.0 9.6 76 2.1 N 19 22 10 12 1003.9 1003.9 0.0
31/10:00am 13.2 7.7 9.1 76 2.1 NW 28 32 15 17 1003.9 1003.9 0.0
31/09:30am 12.7 7.1 8.6 76 2.0 NW 28 33 15 18 1004.4 1004.4 0.0
31/09:00am 12.7 7.2 9.0 78 1.9 NW 28 33 15 18 1004.8 1004.8 2.6
31/08:30am 12.6 6.6 8.7 77 1.9 NNW 30 35 16 19 1004.8 1004.8 2.6
31/08:00am 12.9 7.7 9.0 77 2.0 NW 26 33 14 18 1005.4 1005.4 2.6
31/07:30am 12.0 5.5 8.8 81 1.6 NW 33 39 18 21 1005.3 1005.3 2.6
31/07:00am 11.7 5.7 8.7 82 1.5 NNW 30 35 16 19 1005.4 1005.4 2.6
31/06:30am 11.9 5.4 8.9 82 1.5 NNW 33 39 18 21 1005.3 1005.3 2.6
31/06:00am 11.9 5.9 8.7 81 1.6 NNW 30 35 16 19 1005.5 1005.5 2.6
31/05:30am 12.1 6.5 8.9 81 1.6 NNW 28 33 15 18 1005.5 1005.5 2.6
31/05:00am 12.2 5.3 9.0 81 1.6 NNW 35 39 19 21 1005.4 1005.4 2.6
31/04:30am 12.2 6.4 9.4 83 1.4 NNW 30 35 16 19 1005.6 1005.6 2.6
31/04:00am 11.9 6.9 9.6 86 1.2 N 26 32 14 17 1005.9 1005.9 2.6
31/03:55am 12.0 6.7 9.7 86 1.2 N 28 32 15 17 1006.0 1006.0 2.6
31/03:30am 11.1 10.0 9.9 92 0.6 N 6 9 3 5 1006.5 1006.5 2.6
31/03:00am 11.1 8.3 10.0 93 0.6 NNW 15 20 8 11 1006.7 1006.7 2.6
31/02:30am 11.5 8.9 10.6 94 0.5 NNW 15 20 8 11 1006.8 1006.8 2.6
31/02:00am 11.0 8.9 9.9 93 0.6 NNW 11 15 6 8 1007.0 1007.0 2.6
31/01:30am 11.9 8.3 10.6 92 0.7 N 20 28 11 15 1007.6 1007.6 2.6
31/01:00am 12.0 8.4 10.6 91 0.7 N 20 24 11 13 1007.7 1007.7 2.6
31/12:30am 11.9 8.3 10.6 92 0.7 N 20 24 11 13 1008.1 1008.1 2.6
31/12:00am 11.9 8.5 10.5 91 0.7 N 19 24 10 13 1008.3 1008.3 2.6
 
Date/Time
EDT
Tmp

°C
App
Tmp
°C
Dew
Point
°C
Rel
Hum
%
Delta-T

°C
Wind Press
QNH
hPa
Press
MSL
hPa
Rain
since
9 am
mm
Dir
 
Spd
km/h
Gust
km/h
Spd
kts
Gust
kts
30/11:30pm 11.9 8.2 10.3 90 0.8 N 20 24 11 13 1008.4 1008.4 2.6
30/11:00pm 11.9 8.7 9.8 87 1.1 N 17 20 9 11 1008.6 1008.6 2.6
30/10:30pm 11.6 8.0 9.7 88 1.0 N 19 24 10 13 1008.8 1008.8 2.6
30/10:00pm 11.9 8.0 9.6 86 1.2 N 20 26 11 14 1008.9 1008.9 2.6
30/09:30pm 11.6 7.3 9.5 87 1.1 N 22 30 12 16 1008.8 1008.8 2.6
30/09:00pm 11.9 7.0 9.8 87 1.1 N 26 30 14 16 1008.7 1008.7 2.6
30/08:30pm 11.8 7.6 9.7 87 1.1 N 22 28 12 15 1008.6 1008.6 2.6
30/08:00pm 11.8 7.2 9.5 86 1.2 N 24 28 13 15 1008.3 1008.3 2.6
30/07:30pm 12.3 8.5 9.7 84 1.3 N 20 24 11 13 1008.2 1008.2 2.6
30/07:00pm 12.5 11.8 10.0 85 1.3 N 4 7 2 4 1008.2 1008.2 2.6
30/06:30pm 12.2 10.8 9.6 84 1.3 ENE 7 11 4 6 1007.9 1007.9 2.6
30/06:00pm 12.0 10.1 9.0 82 1.5 E 9 15 5 8 1007.8 1007.8 2.6
30/05:30pm 12.2 10.1 9.6 84 1.3 E 11 15 6 8 1007.8 1007.8 2.6
30/05:00pm 12.3 9.8 9.7 84 1.3 E 13 17 7 9 1007.8 1007.8 2.6
30/04:30pm 11.8 9.3 9.7 87 1.1 ENE 13 19 7 10 1007.5 1007.5 2.6
30/04:00pm 11.9 9.5 10.1 89 0.9 E 13 19 7 10 1007.5 1007.5 2.6
30/03:30pm 11.5 8.7 9.9 90 0.8 E 15 20 8 11 1007.4 1007.4 2.4
30/03:00pm 11.5 7.8 9.6 88 1.0 E 19 26 10 14 1007.1 1007.1 1.4
30/02:30pm 12.3 7.8 9.9 85 1.2 E 24 30 13 16 1007.0 1007.0 0.6
30/02:00pm 11.7 8.5 9.8 88 1.0 E 17 22 9 12 1007.0 1007.0 0.6
30/01:30pm 12.7 8.4 9.5 81 1.6 ESE 22 28 12 15 1007.1 1007.1 0.4
30/01:00pm 14.1 10.3 11.1 82 1.6 ESE 22 28 12 15 1007.1 1007.1 0.4
30/12:30pm 12.5 7.8 10.7 89 0.9 ESE 26 33 14 18 1007.0 1007.0 0.4
30/12:00pm 14.2 9.4 10.2 77 2.1 E 26 32 14 17 1007.1 1007.1 0.0
30/11:30am 14.4 11.1 9.6 73 2.5 E 17 26 9 14 1007.1 1007.1 0.0
30/11:00am 16.4 14.8 7.9 57 4.3 SSW 6 7 3 4 1007.2 1007.2 0.0
30/10:30am 15.3 13.9 7.3 59 4.0 NNW 4 7 2 4 1007.2 1007.2 0.0
30/10:00am 14.7 12.5 7.7 63 3.5 N 9 11 5 6 1007.1 1007.1 0.0
30/09:30am 14.4 10.6 7.7 64 3.3 N 17 19 9 10 1007.1 1007.1 0.0
30/09:00am 14.0 10.7 8.0 67 3.0 N 15 19 8 10 1007.2 1007.2 0.0
30/08:30am 14.7 12.2 8.0 64 3.3 NNW 11 15 6 8 1007.3 1007.3 0.0
30/08:00am 13.9 10.4 7.2 64 3.3 NW 15 19 8 10 1007.2 1007.2 0.0
30/07:30am 13.7 10.9 7.0 64 3.3 NNW 11 15 6 8 1007.2 1007.2 0.0
30/07:00am 12.8 8.3 6.8 67 2.9 NNW 20 28 11 15 1006.4 1006.4 0.0
30/06:30am 12.8 9.0 7.7 71 2.5 NNW 17 20 9 11 1006.5 1006.5 0.0
30/06:00am 12.6 9.4 6.9 68 2.8 NW 13 17 7 9 1006.3 1006.3 0.0
30/05:30am 13.0 9.6 6.1 63 3.3 NW 13 19 7 10 1006.2 1006.2 0.0
30/05:00am 12.9 9.6 6.3 64 3.2 WNW 13 17 7 9 1006.0 1006.0 0.0
30/04:30am 12.9 8.8 6.3 64 3.1 WNW 17 26 9 14 1006.2 1006.2 0.0
30/04:00am 13.3 7.4 5.9 61 3.5 WNW 26 37 14 20 1005.8 1005.8 0.0
30/03:30am 13.2 7.8 6.5 64 3.2 WNW 24 35 13 19 1005.9 1005.9 0.0
30/03:00am 13.5 7.3 6.1 61 3.5 WNW 28 35 15 19 1005.9 1005.9 0.0
30/02:30am 13.6 6.4 6.0 60 3.6 WNW 33 44 18 24 1005.9 1005.9 0.0
30/02:00am 13.7 6.8 6.3 61 3.6 WNW 32 46 17 25 1005.9 1005.9 0.0
30/01:30am 13.7 6.6 6.6 62 3.4 WNW 33 52 18 28 1005.8 1005.8 0.0
30/01:13am 13.9 6.3 5.8 58 3.8 WNW 35 54 19 29 1005.7 1005.7 0.0
30/01:00am 13.8 6.3 6.2 60 3.6 WNW 35 52 19 28 1005.9 1005.9 0.0
30/12:30am 13.9 6.4 6.3 60 3.6 WNW 35 44 19 24 1006.1 1006.1 0.0
30/12:00am 13.8 7.0 6.7 62 3.4 WNW 32 46 17 25 1006.3 1006.3 0.0
 
Date/Time
EDT
Tmp

°C
App
Tmp
°C
Dew
Point
°C
Rel
Hum
%
Delta-T

°C
Wind Press
QNH
hPa
Press
MSL
hPa
Rain
since
9 am
mm
Dir
 
Spd
km/h
Gust
km/h
Spd
kts
Gust
kts
29/11:30pm 14.1 7.2 6.5 60 3.7 WNW 32 39 17 21 1006.5 1006.5 0.0
29/11:00pm 14.3 8.2 6.4 59 3.8 NW 28 39 15 21 1006.4 1006.4 0.0
29/10:30pm 14.4 9.0 6.5 59 3.8 NW 24 35 13 19 1006.7 1006.7 0.0
29/10:00pm 14.3 8.6 6.9 61 3.6 WNW 26 32 14 17 1006.9 1006.9 0.0
29/09:30pm 14.9 8.8 6.5 57 4.1 W 28 39 15 21 1007.0 1007.0 0.0
29/09:00pm 15.0 8.1 6.6 57 4.1 W 32 43 17 23 1006.7 1006.7 0.0
29/08:30pm 15.2 8.8 7.0 58 4.0 W 30 43 16 23 1006.2 1006.2 0.0
29/08:00pm 15.8 10.6 5.7 51 4.9 WNW 22 35 12 19 1006.0 1006.0 0.0
29/07:30pm 16.4 9.6 5.1 47 5.4 WNW 30 46 16 25 1005.8 1005.8 0.0
29/07:15pm 16.7 8.3 5.6 48 5.4 W 39 63 21 34 1005.7 1005.7 0.0
29/07:00pm 17.2 10.2 6.1 48 5.4 W 32 41 17 22 1005.8 1005.8 0.0
29/06:40pm 17.6 10.6 6.2 47 5.6 WNW 32 50 17 27 1005.3 1005.3 0.0
29/06:30pm 17.7 10.6 6.6 48 5.5 W 33 46 18 25 1005.3 1005.3 0.0
29/06:13pm 17.6 8.9 5.9 46 5.7 W 41 61 22 33 1005.2 1005.2 0.0
29/06:00pm 17.3 7.2 5.6 46 5.7 W 48 61 26 33 1005.1 1005.1 0.0
29/05:33pm 18.7 11.6 5.5 42 6.4 W 32 50 17 27 1005.1 1005.1 0.0
29/05:30pm 18.8 12.3 6.6 45 6.1 W 30 41 16 22 1005.3 1005.3 0.0
29/05:00pm 19.1 13.8 6.9 45 6.2 W 24 41 13 22 1005.2 1005.2 0.0
29/04:30pm 18.9 13.7 5.7 42 6.5 W 22 33 12 18 1005.4 1005.4 0.0
29/04:00pm 18.7 11.9 5.2 41 6.6 WNW 30 37 16 20 1005.2 1005.2 0.0
29/03:30pm 18.5 9.5 6.4 45 6.0 WNW 43 54 23 29 1005.0 1005.0 0.0
29/03:18pm 19.1 11.4 6.9 45 6.1 WNW 37 56 20 30 1005.4 1005.4 0.0
29/03:00pm 18.8 11.1 6.9 46 6.0 WNW 37 52 20 28 1005.7 1005.7 0.0
29/02:30pm 18.6 11.3 7.4 48 5.7 WNW 35 52 19 28 1006.1 1006.1 0.0
29/02:21pm 18.4 11.8 5.9 44 6.1 WNW 30 50 16 27 1006.0 1006.0 0.0

Latest Capital City Observations: Canberra | Sydney | Melbourne | Brisbane | Adelaide | Perth | Hobart | Darwin

Other Formats:

Comma delimited format used in spreadsheet applications
http://www.bom.gov.au/fwo/IDT60901/IDT60901.95988.axf

JavaScript Object Notation format (JSON) in row-major order
http://www.bom.gov.au/fwo/IDT60901/IDT60901.95988.json